createdAt,value
2018-09-17T00:00:41.555Z,8.70
2018-09-17T00:03:08.703Z,9.13
2018-09-17T00:05:35.868Z,9.13
2018-09-17T00:08:03.114Z,9.80
2018-09-17T00:10:30.274Z,8.73
2018-09-17T00:12:57.456Z,8.60
2018-09-17T00:15:24.738Z,9.20
2018-09-17T00:17:52.061Z,9.20
2018-09-17T00:20:19.278Z,8.40
2018-09-17T00:22:46.418Z,9.07
2018-09-17T00:25:13.715Z,8.80
2018-09-17T00:27:42.009Z,8.30
2018-09-17T00:30:09.244Z,8.87
2018-09-17T00:32:36.765Z,8.80
2018-09-17T00:35:04.308Z,8.70
2018-09-17T00:37:31.629Z,9.20
2018-09-17T00:39:58.881Z,9.33
2018-09-17T00:42:26.162Z,9.63
2018-09-17T00:44:53.325Z,8.40
2018-09-17T00:47:20.631Z,9.03
2018-09-17T00:49:47.884Z,9.00
2018-09-17T00:52:15.151Z,9.00
2018-09-17T00:54:42.388Z,8.83
2018-09-17T00:57:09.573Z,8.37
2018-09-17T00:59:36.857Z,8.73
2018-09-17T01:02:04.066Z,9.20
2018-09-17T01:04:31.482Z,8.60
2018-09-17T01:07:01.104Z,8.80
2018-09-17T01:09:36.996Z,8.47
2018-09-17T01:12:04.222Z,7.80
2018-09-17T01:14:31.404Z,8.20
2018-09-17T01:16:58.536Z,7.80
2018-09-17T01:19:25.759Z,7.13
2018-09-17T01:21:52.974Z,7.90
2018-09-17T01:24:20.156Z,10.00
2018-09-17T01:26:47.598Z,8.10
2018-09-17T01:29:14.850Z,8.17
2018-09-17T01:31:42.085Z,8.30
2018-09-17T01:34:09.249Z,8.30
2018-09-17T01:36:37.026Z,8.23
2018-09-17T01:39:06.897Z,7.67
2018-09-17T01:41:34.095Z,7.83
2018-09-17T01:44:01.407Z,7.37
2018-09-17T01:46:28.625Z,7.90
2018-09-17T01:48:55.800Z,7.97
2018-09-17T01:51:23.228Z,8.23
2018-09-17T01:53:51.500Z,7.60
2018-09-17T01:56:18.795Z,8.60
2018-09-17T01:58:46.140Z,7.30
2018-09-17T02:01:13.260Z,7.77
2018-09-17T02:03:40.422Z,6.90
2018-09-17T02:06:07.626Z,7.60
2018-09-17T02:08:35.293Z,7.60
2018-09-17T02:11:02.460Z,7.13
2018-09-17T02:13:29.750Z,7.90
2018-09-17T02:15:56.933Z,7.20
2018-09-17T02:18:24.324Z,7.17
2018-09-17T02:20:52.571Z,8.37
2018-09-17T02:23:19.855Z,6.83
2018-09-17T02:25:47.045Z,7.13
2018-09-17T02:28:15.264Z,6.83
2018-09-17T02:30:42.700Z,7.17
2018-09-17T02:33:09.878Z,7.23
2018-09-17T02:35:37.172Z,7.90
2018-09-17T02:38:04.638Z,6.93
2018-09-17T02:40:31.874Z,6.90
2018-09-17T02:42:59.101Z,6.60
2018-09-17T02:45:26.338Z,6.67
2018-09-17T02:47:53.581Z,6.93
2018-09-17T02:50:21.541Z,7.23
2018-09-17T02:52:48.820Z,6.67
2018-09-17T02:55:16.002Z,7.37
2018-09-17T02:57:43.317Z,7.40
2018-09-17T03:00:10.508Z,6.80
2018-09-17T03:02:37.999Z,7.00
2018-09-17T03:05:05.524Z,6.90
2018-09-17T03:07:32.714Z,6.43
2018-09-17T03:09:59.957Z,7.57
2018-09-17T03:12:27.258Z,7.33
2018-09-17T03:14:54.428Z,6.33
2018-09-17T03:17:21.656Z,6.60
2018-09-17T03:19:48.953Z,7.60
2018-09-17T03:22:16.185Z,7.53
2018-09-17T03:24:43.391Z,7.30
2018-09-17T03:27:10.559Z,6.90
2018-09-17T03:29:37.777Z,7.67
2018-09-17T03:32:05.017Z,6.60
2018-09-17T03:34:33.213Z,8.00
2018-09-17T03:37:00.515Z,8.43
2018-09-17T03:39:27.798Z,8.27
2018-09-17T03:41:55.037Z,7.67
2018-09-17T03:44:22.476Z,7.10
2018-09-17T03:46:49.728Z,7.63
2018-09-17T03:49:16.984Z,8.00
2018-09-17T03:51:44.117Z,9.03
2018-09-17T03:54:11.325Z,9.90
2018-09-17T03:56:38.495Z,9.17
2018-09-17T03:59:05.810Z,8.40
2018-09-17T04:01:32.959Z,9.40
2018-09-17T04:04:00.217Z,8.53
2018-09-17T04:06:27.430Z,9.47
2018-09-17T04:08:54.611Z,9.87
2018-09-17T04:11:22.339Z,9.83
2018-09-17T04:13:49.543Z,9.47
2018-09-17T04:16:17.311Z,9.17
2018-09-17T04:18:45.021Z,9.40
2018-09-17T04:21:12.172Z,9.67
2018-09-17T04:23:39.520Z,9.83
2018-09-17T04:26:08.917Z,8.27
2018-09-17T04:28:36.710Z,9.10
2018-09-17T04:31:04.194Z,9.70
2018-09-17T04:33:46.299Z,10.57
2018-09-17T04:36:13.600Z,9.60
2018-09-17T04:38:40.789Z,9.43
2018-09-17T04:41:08.023Z,10.73
2018-09-17T04:43:35.253Z,8.80
2018-09-17T04:46:02.455Z,9.10
2018-09-17T04:48:30.672Z,8.80
2018-09-17T04:50:57.949Z,10.00
2018-09-17T04:53:25.941Z,9.53
2018-09-17T04:55:53.243Z,9.37
2018-09-17T04:58:20.425Z,9.50
2018-09-17T05:00:48.056Z,9.80
2018-09-17T05:03:15.276Z,9.30
2018-09-17T05:05:42.502Z,9.37
2018-09-17T05:08:09.697Z,9.10
2018-09-17T05:10:36.981Z,10.20
2018-09-17T05:13:05.515Z,11.30
2018-09-17T05:15:32.732Z,10.50
2018-09-17T05:17:59.962Z,12.50
2018-09-17T05:20:28.193Z,11.50
2018-09-17T05:22:55.751Z,10.63
2018-09-17T05:25:23.043Z,10.50
2018-09-17T05:27:50.264Z,11.90
2018-09-17T05:30:17.504Z,14.60
2018-09-17T05:32:44.757Z,13.00
2018-09-17T05:35:12.206Z,13.30
2018-09-17T05:37:39.618Z,12.33
2018-09-17T05:40:06.810Z,13.57
2018-09-17T05:42:34.350Z,12.73
2018-09-17T05:45:01.650Z,13.60
2018-09-17T05:47:28.844Z,12.10
2018-09-17T05:49:56.145Z,12.63
2018-09-17T05:52:23.826Z,12.17
2018-09-17T05:54:51.115Z,12.47
2018-09-17T05:57:18.567Z,14.83
2018-09-17T05:59:45.835Z,14.00
2018-09-17T06:02:13.103Z,13.00
2018-09-17T06:04:40.444Z,14.47
2018-09-17T06:07:07.750Z,15.10
2018-09-17T06:09:37.076Z,14.07
2018-09-17T06:12:04.290Z,13.50
2018-09-17T06:14:31.556Z,12.87
2018-09-17T06:16:58.790Z,11.43
2018-09-17T06:19:26.015Z,12.83
2018-09-17T06:21:53.413Z,21.47
2018-09-17T06:24:21.600Z,14.80
2018-09-17T06:26:48.904Z,15.60
2018-09-17T06:29:16.123Z,15.47
2018-09-17T06:31:43.417Z,14.33
2018-09-17T06:34:10.655Z,14.37
2018-09-17T06:36:37.938Z,15.73
2018-09-17T06:39:06.641Z,13.07
2018-09-17T06:41:33.960Z,13.87
2018-09-17T06:44:01.281Z,11.73
2018-09-17T06:46:29.646Z,12.00
2018-09-17T06:48:56.963Z,12.87
2018-09-17T06:51:24.322Z,14.80
2018-09-17T06:53:51.497Z,13.67
2018-09-17T06:56:19.157Z,13.93
2018-09-17T06:58:46.495Z,14.00
2018-09-17T07:01:14.073Z,13.77
2018-09-17T07:03:41.384Z,13.93
2018-09-17T07:06:08.785Z,15.13
2018-09-17T07:08:35.960Z,13.80
2018-09-17T07:11:03.554Z,14.80
2018-09-17T07:13:31.360Z,13.37
2018-09-17T07:15:58.971Z,13.73
2018-09-17T07:18:26.328Z,15.53
2018-09-17T07:20:58.392Z,17.60
2018-09-17T07:23:26.989Z,16.20
2018-09-17T07:25:54.243Z,17.87
2018-09-17T07:28:21.495Z,17.73
2018-09-17T07:30:48.842Z,17.03
2018-09-17T07:33:16.107Z,16.70
2018-09-17T07:35:43.842Z,17.50
2018-09-17T07:38:11.596Z,17.30
2018-09-17T07:40:38.881Z,17.63
2018-09-17T07:43:06.165Z,18.33
2018-09-17T07:45:33.469Z,18.67
2018-09-17T07:48:02.076Z,17.87
2018-09-17T07:50:29.301Z,18.60
2018-09-17T07:52:56.628Z,18.60
2018-09-17T07:55:25.330Z,17.10
2018-09-17T07:57:52.693Z,19.00
2018-09-17T08:00:21.092Z,21.33
2018-09-17T08:02:49.572Z,38.23
2018-09-17T08:05:16.993Z,26.43
2018-09-17T08:07:44.524Z,18.47
2018-09-17T08:10:16.381Z,18.20
2018-09-17T08:12:43.634Z,20.40
2018-09-17T08:15:10.989Z,25.00
2018-09-17T08:17:38.272Z,22.47
2018-09-17T08:20:05.655Z,19.63
2018-09-17T08:22:33.064Z,25.23
2018-09-17T08:25:00.312Z,18.77
2018-09-17T08:27:28.180Z,18.90
2018-09-17T08:29:55.461Z,16.73
2018-09-17T08:32:23.052Z,18.80
2018-09-17T08:34:50.382Z,17.13
2018-09-17T08:37:17.673Z,15.70
2018-09-17T08:39:44.931Z,17.70
2018-09-17T08:42:12.205Z,14.57
2018-09-17T08:44:39.989Z,16.90
2018-09-17T08:47:08.374Z,16.90
2018-09-17T08:49:35.653Z,16.03
2018-09-17T08:52:02.937Z,17.80
2018-09-17T08:54:30.344Z,16.10
2018-09-17T08:56:57.565Z,17.07
2018-09-17T08:59:30.584Z,17.27
2018-09-17T09:01:58.737Z,18.17
2018-09-17T09:04:27.578Z,18.80
2018-09-17T09:06:59.495Z,17.17
2018-09-17T09:09:27.033Z,16.90
2018-09-17T09:11:58.947Z,17.47
2018-09-17T09:14:32.810Z,19.10
2018-09-17T09:17:00.077Z,18.40
2018-09-17T09:19:27.509Z,22.30
2018-09-17T09:21:54.816Z,18.50
2018-09-17T09:24:22.098Z,19.50
2018-09-17T09:26:49.361Z,16.57
2018-09-17T09:29:16.542Z,15.40
2018-09-17T09:31:43.732Z,21.30
2018-09-17T09:34:11.032Z,15.17
2018-09-17T09:36:38.438Z,14.50
2018-09-17T09:39:07.915Z,13.50
2018-09-17T09:41:35.213Z,13.70
2018-09-17T09:44:02.419Z,11.90
2018-09-17T09:46:29.899Z,12.80
2018-09-17T09:48:57.535Z,12.97
2018-09-17T09:51:24.758Z,14.90
2018-09-17T09:53:52.285Z,14.33
2018-09-17T09:56:19.689Z,11.20
2018-09-17T09:58:46.969Z,11.63
2018-09-17T10:01:19.976Z,10.90
2018-09-17T10:06:25.381Z,10.00
2018-09-17T10:08:58.643Z,10.30
2018-09-17T10:11:31.693Z,10.47
2018-09-17T10:14:04.801Z,9.13
2018-09-17T10:16:32.120Z,11.23
2018-09-17T10:19:05.183Z,9.87
2018-09-17T10:21:32.533Z,10.50
2018-09-17T10:24:00.183Z,10.00
2018-09-17T10:26:27.593Z,9.30
2018-09-17T10:28:55.040Z,9.93
2018-09-17T10:31:22.382Z,10.50
2018-09-17T10:33:49.583Z,9.67
2018-09-17T10:36:17.960Z,8.83
2018-09-17T10:38:45.368Z,9.00
2018-09-17T10:41:12.891Z,9.80
2018-09-17T10:43:40.580Z,10.23
2018-09-17T10:46:09.007Z,9.30
2018-09-17T10:48:36.377Z,8.47
2018-09-17T10:51:03.732Z,8.57
2018-09-17T10:53:31.623Z,8.10
2018-09-17T10:55:59.350Z,9.30
2018-09-17T10:58:26.707Z,8.70
2018-09-17T11:00:54.884Z,7.80
2018-09-17T11:03:22.407Z,8.20
2018-09-17T11:05:49.710Z,8.60
2018-09-17T11:08:17.672Z,8.60
2018-09-17T11:10:45.117Z,7.80
2018-09-17T11:13:12.325Z,9.13
2018-09-17T11:15:45.636Z,8.70
2018-09-17T11:18:13.885Z,8.20
2018-09-17T11:20:41.292Z,7.73
2018-09-17T11:23:08.622Z,7.50
2018-09-17T11:25:35.987Z,8.20
2018-09-17T11:28:04.540Z,9.00
2018-09-17T11:30:33.986Z,8.10
2018-09-17T11:33:01.363Z,7.63
2018-09-17T11:35:28.691Z,7.53
2018-09-17T11:37:56.356Z,8.43
2018-09-17T11:40:24.965Z,7.17
2018-09-17T11:42:53.325Z,8.03
2018-09-17T11:45:20.988Z,8.60
2018-09-17T11:47:49.198Z,7.87
2018-09-17T11:50:17.206Z,6.83
2018-09-17T11:52:44.522Z,7.43
2018-09-17T11:55:11.848Z,6.60
2018-09-17T11:57:40.261Z,7.00
2018-09-17T12:00:09.206Z,6.20
2018-09-17T12:02:37.180Z,6.20
2018-09-17T12:05:05.271Z,6.33
2018-09-17T12:07:35.364Z,6.07
2018-09-17T12:10:12.533Z,6.13
2018-09-17T12:12:40.653Z,5.73
2018-09-17T12:15:08.503Z,6.23
2018-09-17T12:17:36.150Z,6.07
2018-09-17T12:20:03.514Z,9.03
2018-09-17T12:22:31.049Z,7.60
2018-09-17T12:31:56.354Z,6.73
2018-09-17T12:34:23.877Z,5.13
2018-09-17T12:36:51.163Z,6.60
2018-09-17T12:39:18.541Z,6.87
2018-09-17T12:41:45.789Z,6.80
2018-09-17T12:44:13.057Z,6.57
2018-09-17T12:46:40.524Z,6.60
2018-09-17T12:49:08.668Z,6.10
2018-09-17T12:51:36.101Z,6.10
2018-09-17T12:54:03.541Z,6.00
2018-09-17T12:56:31.887Z,5.93
2018-09-17T12:58:59.263Z,6.47
2018-09-17T13:01:26.573Z,6.10
2018-09-17T13:03:53.880Z,13.10
2018-09-17T13:06:21.497Z,5.47
2018-09-17T13:08:48.841Z,5.60
2018-09-17T13:11:16.397Z,5.47
2018-09-17T13:13:43.786Z,6.27
2018-09-17T13:16:11.164Z,5.30
2018-09-17T13:18:38.687Z,5.90
2018-09-17T13:21:07.171Z,5.40
2018-09-17T13:23:34.536Z,5.70
2018-09-17T13:26:02.055Z,5.50
2018-09-17T13:28:30.029Z,5.50
2018-09-17T13:30:57.263Z,5.17
2018-09-17T13:33:24.490Z,5.00
2018-09-17T13:35:51.737Z,4.93
2018-09-17T13:38:21.035Z,5.20
2018-09-17T13:40:49.580Z,5.30
2018-09-17T13:43:16.774Z,5.23
2018-09-17T13:45:43.987Z,4.80
2018-09-17T13:48:11.993Z,6.47
2018-09-17T13:50:39.308Z,5.70
2018-09-17T13:53:08.704Z,5.23
2018-09-17T13:55:36.884Z,5.17
2018-09-17T13:58:04.684Z,5.43
2018-09-17T14:00:31.952Z,5.43
2018-09-17T14:02:59.269Z,5.50
2018-09-17T14:05:26.589Z,11.30
2018-09-17T14:07:53.950Z,4.80
2018-09-17T14:10:21.216Z,4.23
2018-09-17T14:12:52.378Z,4.20
2018-09-17T14:15:19.620Z,4.40
2018-09-17T14:17:47.995Z,4.77
2018-09-17T14:20:15.425Z,4.60
2018-09-17T14:22:42.687Z,5.47
2018-09-17T14:25:10.884Z,6.03
2018-09-17T14:27:38.404Z,5.10
2018-09-17T14:30:07.427Z,5.00
2018-09-17T14:32:40.450Z,5.13
2018-09-17T14:35:13.537Z,4.50
2018-09-17T14:37:44.037Z,5.50
2018-09-17T14:40:20.264Z,4.87
2018-09-17T14:42:47.655Z,5.00
2018-09-17T14:45:15.034Z,5.07
2018-09-17T14:47:43.202Z,5.37
2018-09-17T14:50:11.236Z,5.30
2018-09-17T14:52:39.715Z,4.80
2018-09-17T14:55:07.107Z,4.70
2018-09-17T14:57:34.396Z,4.97
2018-09-17T15:00:01.798Z,5.37
2018-09-17T15:02:29.707Z,5.07
2018-09-17T15:04:57.188Z,5.23
2018-09-17T15:07:24.429Z,5.20
2018-09-17T15:09:51.876Z,5.10
2018-09-17T15:12:19.168Z,5.70
2018-09-17T15:14:46.741Z,5.07
2018-09-17T15:17:15.275Z,5.17
2018-09-17T15:19:42.573Z,5.57
2018-09-17T15:22:09.932Z,4.97
2018-09-17T15:24:43.425Z,13.83
2018-09-17T15:27:13.013Z,14.93
2018-09-17T15:29:47.178Z,6.93
2018-09-17T15:32:20.129Z,7.70
2018-09-17T15:34:48.898Z,6.10
2018-09-17T15:37:22.901Z,6.20
2018-09-17T15:39:56.323Z,5.50
2018-09-17T15:42:29.400Z,4.90
2018-09-17T15:44:58.327Z,5.37
2018-09-17T15:47:31.352Z,5.57
2018-09-17T15:50:07.796Z,6.30
2018-09-17T15:52:45.448Z,6.37
2018-09-17T15:57:57.892Z,7.20
2018-09-17T16:00:25.730Z,6.03
2018-09-17T16:02:53.075Z,8.07
2018-09-17T16:05:21.086Z,7.03
2018-09-17T16:07:48.578Z,7.53
2018-09-17T16:10:16.024Z,11.80
2018-09-17T16:12:45.753Z,6.10
2018-09-17T16:15:25.352Z,8.57
2018-09-17T16:17:53.804Z,8.07
2018-09-17T16:20:21.073Z,7.87
2018-09-17T16:23:01.678Z,8.60
2018-09-17T16:25:30.435Z,8.53
2018-09-17T16:27:58.779Z,9.87
2018-09-17T16:30:27.368Z,6.20
2018-09-17T16:32:55.332Z,9.93
2018-09-17T16:35:24.624Z,7.50
2018-09-17T16:37:52.789Z,7.13
2018-09-17T16:40:20.188Z,8.30
2018-09-17T16:42:48.328Z,7.90
2018-09-17T16:45:15.640Z,9.10
2018-09-17T16:47:45.249Z,8.90
2018-09-17T16:50:12.788Z,8.17
2018-09-17T16:52:40.002Z,8.10
2018-09-17T16:55:08.869Z,7.70
2018-09-17T16:57:36.190Z,8.30
2018-09-17T17:00:03.604Z,8.63
2018-09-17T17:02:30.898Z,8.23
2018-09-17T17:05:01.773Z,8.27
2018-09-17T17:07:29.197Z,7.60
2018-09-17T17:09:56.721Z,9.03
2018-09-17T17:12:24.988Z,8.60
2018-09-17T17:14:52.190Z,7.30
2018-09-17T17:17:19.565Z,8.03
2018-09-17T17:19:46.788Z,8.20
2018-09-17T17:22:22.191Z,8.53
2018-09-17T17:24:49.430Z,11.60
2018-09-17T17:27:18.142Z,16.73
2018-09-17T17:29:45.816Z,18.30
2018-09-17T17:32:12.996Z,18.23
2018-09-17T17:34:40.243Z,14.80
2018-09-17T17:37:08.953Z,12.33
2018-09-17T17:39:37.090Z,11.20
2018-09-17T17:42:04.250Z,12.20
2018-09-17T17:44:32.132Z,11.60
2018-09-17T17:46:59.903Z,11.43
2018-09-17T17:49:27.324Z,13.13
2018-09-17T17:51:57.097Z,14.77
2018-09-17T17:54:31.177Z,9.60
2018-09-17T17:56:58.559Z,10.83
2018-09-17T17:59:25.940Z,10.70
2018-09-17T18:01:53.405Z,11.20
2018-09-17T18:04:21.793Z,13.60
2018-09-17T18:06:49.317Z,12.80
2018-09-17T18:09:16.940Z,11.53
2018-09-17T18:11:44.552Z,11.33
2018-09-17T18:14:11.997Z,10.83
2018-09-17T18:16:40.040Z,11.60
2018-09-17T18:19:07.865Z,10.23
2018-09-17T18:21:35.216Z,13.97
2018-09-17T18:24:02.686Z,11.60
2018-09-17T18:26:30.195Z,10.97
2018-09-17T18:28:57.750Z,13.23
2018-09-17T18:31:25.821Z,13.93
2018-09-17T18:33:53.476Z,15.70
2018-09-17T18:36:22.171Z,13.20
2018-09-17T18:39:00.102Z,13.43
2018-09-17T18:41:27.734Z,15.13
2018-09-17T18:43:55.443Z,10.93
2018-09-17T18:46:49.251Z,11.70
2018-09-17T18:49:16.717Z,13.80
2018-09-17T18:51:44.785Z,15.13
2018-09-17T18:54:14.814Z,14.73
2018-09-17T18:56:43.105Z,12.97
2018-09-17T18:59:10.471Z,20.10
2018-09-17T19:01:37.824Z,14.77
2018-09-17T19:04:05.373Z,16.30
2018-09-17T19:06:33.385Z,14.20
2018-09-17T19:09:00.926Z,12.67
2018-09-17T19:11:30.074Z,11.83
2018-09-17T19:14:03.857Z,16.47
2018-09-17T19:16:38.804Z,20.87
2018-09-17T19:19:06.717Z,16.40
2018-09-17T19:21:40.683Z,13.43
2018-09-17T19:24:08.694Z,13.00
2018-09-17T19:26:36.101Z,16.03
2018-09-17T19:29:09.354Z,26.90
2018-09-17T19:31:36.803Z,22.00
2018-09-17T19:34:04.881Z,18.23
2018-09-17T19:36:32.484Z,17.50
2018-09-17T19:39:06.085Z,16.80
2018-09-17T19:41:34.134Z,13.80
2018-09-17T19:44:03.007Z,16.13
2018-09-17T19:46:31.334Z,15.07
2018-09-17T19:49:03.397Z,14.50
2018-09-17T19:51:37.828Z,15.00
2018-09-17T19:54:06.382Z,13.23
2018-09-17T19:56:33.598Z,13.80
2018-09-17T19:59:07.864Z,14.63
2018-09-17T20:01:35.504Z,13.50
2018-09-17T20:04:08.839Z,13.23
2018-09-17T20:06:37.495Z,13.57
2018-09-17T20:09:07.815Z,13.53
2018-09-17T20:11:35.324Z,13.90
2018-09-17T20:14:02.883Z,12.90
2018-09-17T20:16:31.354Z,26.13
2018-09-17T20:18:59.289Z,16.70
2018-09-17T20:21:27.375Z,15.20
2018-09-17T20:23:55.021Z,12.77
2018-09-17T20:26:25.138Z,13.37
2018-09-17T20:28:58.123Z,12.47
2018-09-17T20:31:27.133Z,11.43
2018-09-17T20:33:56.694Z,14.40
2018-09-17T20:36:25.601Z,14.17
2018-09-17T20:38:53.685Z,15.20
2018-09-17T20:41:22.690Z,11.90
2018-09-17T20:43:50.081Z,21.47
2018-09-17T20:46:17.389Z,13.57
2018-09-17T20:48:46.659Z,11.67
2018-09-17T20:51:14.361Z,10.57
2018-09-17T20:53:41.858Z,11.30
2018-09-17T20:56:10.098Z,12.20
2018-09-17T20:58:38.936Z,11.00
2018-09-17T21:01:07.989Z,10.70
2018-09-17T21:03:36.313Z,10.67
2018-09-17T21:06:04.233Z,10.70
2018-09-17T21:08:33.819Z,23.10
2018-09-17T21:11:01.280Z,10.20
2018-09-17T21:13:30.228Z,10.50
2018-09-17T21:15:57.417Z,10.73
2018-09-17T21:18:25.511Z,11.00
2018-09-17T21:20:53.217Z,9.73
2018-09-17T21:23:20.894Z,8.90
2018-09-17T21:25:48.989Z,9.20
2018-09-17T21:28:16.771Z,9.93
2018-09-17T21:30:44.929Z,9.60
2018-09-17T21:33:12.996Z,9.50
2018-09-17T21:35:40.488Z,9.13
2018-09-17T21:38:09.080Z,8.93
2018-09-17T21:40:40.217Z,8.80
2018-09-17T21:43:07.907Z,8.83
2018-09-17T21:45:35.348Z,9.40
2018-09-17T21:48:03.263Z,9.27
2018-09-17T21:50:32.022Z,9.87
2018-09-17T21:53:00.188Z,9.63
2018-09-17T21:55:27.527Z,10.00
2018-09-17T21:57:55.406Z,10.00
2018-09-17T22:00:24.077Z,10.23
2018-09-17T22:02:51.385Z,10.87
2018-09-17T22:05:19.806Z,10.80
2018-09-17T22:07:54.405Z,10.80
2018-09-17T22:10:23.403Z,9.53
2018-09-17T22:12:51.407Z,10.50
2018-09-17T22:15:20.394Z,10.30
2018-09-17T22:17:47.701Z,10.17
2018-09-17T22:20:14.991Z,10.90
2018-09-17T22:22:42.873Z,10.93
2018-09-17T22:25:10.566Z,9.93
2018-09-17T22:27:38.580Z,10.23
2018-09-17T22:30:07.658Z,10.00
2018-09-17T22:32:34.896Z,10.33
2018-09-17T22:35:02.944Z,10.17
2018-09-17T22:37:32.072Z,10.70
2018-09-17T22:40:00.573Z,10.77
2018-09-17T22:42:29.460Z,10.80
2018-09-17T22:44:57.624Z,10.60
2018-09-17T22:47:27.576Z,10.83
2018-09-17T22:49:54.888Z,11.33
2018-09-17T22:52:22.347Z,11.23
2018-09-17T22:54:49.847Z,10.97
2018-09-17T22:57:17.068Z,11.00
2018-09-17T22:59:44.450Z,9.80
2018-09-17T23:02:11.880Z,10.93
2018-09-17T23:04:39.203Z,10.10
2018-09-17T23:07:06.399Z,10.43
2018-09-17T23:09:33.639Z,10.03
2018-09-17T23:12:00.990Z,10.83
2018-09-17T23:14:28.364Z,10.40
2018-09-17T23:16:55.595Z,10.93
2018-09-17T23:19:23.734Z,10.17
2018-09-17T23:21:50.951Z,10.73
2018-09-17T23:24:18.141Z,11.17
2018-09-17T23:26:45.433Z,10.70
2018-09-17T23:29:12.997Z,11.00
2018-09-17T23:31:43.498Z,10.20
2018-09-17T23:34:10.851Z,10.67
2018-09-17T23:36:38.452Z,11.23
2018-09-17T23:39:08.364Z,11.37
2018-09-17T23:41:35.664Z,11.23
2018-09-17T23:44:02.878Z,10.47
2018-09-17T23:46:30.134Z,11.73
2018-09-17T23:48:57.441Z,11.20
2018-09-17T23:51:24.661Z,11.90
2018-09-17T23:53:52.016Z,12.00
2018-09-17T23:56:19.957Z,11.80
2018-09-17T23:58:47.518Z,11.13
